Time;durP1;ratioP1;P1;durP2;ratioP2;P2;SDS_P1;SDS_P2;PMS_P1;PMS_P2;Temp;Humidity;BMP_temperature;BMP_pressure;BME280_temperature;BME280_humidity;BME280_pressure;Samples;Min_cycle;Max_cycle;Signal;HPM_P1;HPM_P2
2022/10/15 00:00:18;;;;;;;;;;;;;;;;;;5045810;28;5066;-63
2022/10/15 00:02:44;;;;;;;;;;;;;;;;;;5049881;28;3028;-64
2022/10/15 00:05:09;;;;;;;;;;;;;;;;;;5046471;28;4944;-63
2022/10/15 00:07:34;;;;;;;;;;;;;;;;;;5012286;28;5746;-63
2022/10/15 00:09:59;;;;;;;;;;;;;;;;;;5030386;28;4979;-64
2022/10/15 00:12:25;;;;;;;;;;;;;;;;;;5043978;28;5226;-64
2022/10/15 00:14:50;;;;;;;;;;;;;;;;;;5038556;28;2997;-64
2022/10/15 00:17:15;;;;;;;;;;;;;;;;;;5038759;28;5103;-64
2022/10/15 00:19:40;;;;;;;;;;;;;;;;;;5048726;28;5043;-63
2022/10/15 00:22:06;;;;;;;;;;;;;;;;;;5049287;28;4526;-63
2022/10/15 00:24:31;;;;;;;;;;;;;;;;;;5030308;28;4909;-63
2022/10/15 00:26:56;;;;;;;;;;;;;;;;;;5043058;28;4672;-64
2022/10/15 00:29:21;;;;;;;;;;;;;;;;;;5030849;28;4836;-63
2022/10/15 00:31:47;;;;;;;;;;;;;;;;;;5039157;28;4506;-64
2022/10/15 00:34:12;;;;;;;;;;;;;;;;;;5048425;28;4814;-63
2022/10/15 00:36:37;;;;;;;;;;;;;;;;;;5024096;28;5132;-64
2022/10/15 00:39:03;;;;;;;;;;;;;;;;;;5049762;28;3142;-63
2022/10/15 00:41:32;;;;;;;;;;;;;;;;;;5040864;28;4385;-64
2022/10/15 00:43:58;;;;;;;;;;;;;;;;;;5025489;28;5128;-64
2022/10/15 00:46:34;;;;;;;;;;;;;;;;;;5047547;28;4922;-64
2022/10/15 00:49:19;;;;;;;;;;;;;;;;;;5030119;28;4930;-63
2022/10/15 00:51:46;;;;;;;;;;;;;;;;;;5046757;28;5031;-63
2022/10/15 00:54:11;;;;;;;;;;;;;;;;;;5031266;28;3399;-63
2022/10/15 00:56:37;;;;;;;;;;;;;;;;;;5049265;28;4591;-63
2022/10/15 00:59:03;;;;;;;;;;;;;;;;;;5036385;28;5132;-64
2022/10/15 01:01:28;;;;;;;;;;;;;;;;;;5028558;28;4479;-62
2022/10/15 01:03:53;;;;;;;;;;;;;;;;;;5030721;28;4990;-63
2022/10/15 01:06:18;;;;;;;;;;;;;;;;;;5029694;28;5220;-63
2022/10/15 01:08:44;;;;;;;;;;;;;;;;;;5047294;28;3098;-63
2022/10/15 01:11:12;;;;;;;;;;;;;;;;;;5033959;28;4416;-63
2022/10/15 01:13:53;;;;;;;;;;;;;;;;;;5012169;28;5330;-63
2022/10/15 01:16:27;;;;;;;;;;;;;;;;;;5036161;28;5290;-64
2022/10/15 01:18:52;;;;;;;;;;;;;;;;;;5046711;28;5010;-64
2022/10/15 01:21:18;;;;;;;;;;;;;;;;;;5047103;28;5107;-63
2022/10/15 01:23:46;;;;;;;;;;;;;;;;;;5047097;28;2715;-64
2022/10/15 01:26:29;;;;;;;;;;;;;;;;;;5049233;28;5001;-64
2022/10/15 01:29:13;;;;;;;;;;;;;;;;;;5035335;28;4591;-64
2022/10/15 01:31:51;;;;;;;;;;;;;;;;;;5048177;28;4978;-63
2022/10/15 01:34:19;;;;;;;;;;;;;;;;;;5048982;28;4989;-64
2022/10/15 01:36:51;;;;;;;;;;;;;;;;;;5047470;28;4663;-63
2022/10/15 01:39:42;;;;;;;;;;;;;;;;;;5027739;28;3071;-63
2022/10/15 01:42:14;;;;;;;;;;;;;;;;;;5043492;28;4784;-64
2022/10/15 01:44:41;;;;;;;;;;;;;;;;;;5042625;28;4781;-64
2022/10/15 01:47:11;;;;;;;;;;;;;;;;;;5029942;28;5062;-63
2022/10/15 01:49:37;;;;;;;;;;;;;;;;;;5050391;28;5183;-64
2022/10/15 01:52:05;;;;;;;;;;;;;;;;;;5032150;28;5717;-65
2022/10/15 01:54:30;;;;;;;;;;;;;;;;;;5045665;28;4429;-64
2022/10/15 01:56:55;;;;;;;;;;;;;;;;;;5030084;28;3096;-65
2022/10/15 01:59:28;;;;;;;;;;;;;;;;;;5023827;28;5049;-64
2022/10/15 02:01:54;;;;;;;;;;;;;;;;;;5030780;28;4485;-63
2022/10/15 02:04:20;;;;;;;;;;;;;;;;;;5042163;28;4490;-62
2022/10/15 02:06:45;;;;;;;;;;;;;;;;;;5044625;28;5593;-62
2022/10/15 02:09:15;;;;;;;;;;;;;;;;;;5029121;28;3356;-63
2022/10/15 02:12:00;;;;;;;;;;;;;;;;;;5008405;28;4976;-62
2022/10/15 02:14:30;;;;;;;;;;;;;;;;;;5042205;28;4937;-62
2022/10/15 02:16:58;;;;;;;;;;;;;;;;;;5029047;28;5020;-61
2022/10/15 02:19:23;;;;;;;;;;;;;;;;;;5028245;28;4974;-62
2022/10/15 02:22:05;;;;;;;;;;;;;;;;;;5046267;28;5020;-62
2022/10/15 02:24:49;;;;;;;;;;;;;;;;;;5026153;28;5059;-63
2022/10/15 02:27:15;;;;;;;;;;;;;;;;;;5041622;28;4780;-64
2022/10/15 02:29:40;;;;;;;;;;;;;;;;;;5032192;28;4970;-63
2022/10/15 02:32:05;;;;;;;;;;;;;;;;;;5010646;28;4980;-63
2022/10/15 02:34:30;;;;;;;;;;;;;;;;;;5023713;28;5140;-63
2022/10/15 02:36:56;;;;;;;;;;;;;;;;;;5046080;28;5163;-63
2022/10/15 02:39:23;;;;;;;;;;;;;;;;;;5034506;28;5105;-63
2022/10/15 02:41:48;;;;;;;;;;;;;;;;;;5030860;28;1902;-63
2022/10/15 02:44:13;;;;;;;;;;;;;;;;;;5021077;28;5001;-64
2022/10/15 02:46:39;;;;;;;;;;;;;;;;;;5028320;28;5077;-64
2022/10/15 02:49:04;;;;;;;;;;;;;;;;;;5022820;28;5051;-64
2022/10/15 02:51:33;;;;;;;;;;;;;;;;;;5023307;28;5055;-64
2022/10/15 02:53:59;;;;;;;;;;;;;;;;;;5028605;28;894;-64
2022/10/15 02:56:25;;;;;;;;;;;;;;;;;;5027871;28;4899;-64
2022/10/15 02:58:50;;;;;;;;;;;;;;;;;;5027330;28;5489;-63
2022/10/15 03:01:15;;;;;;;;;;;;;;;;;;5026524;28;5045;-63
2022/10/15 03:03:40;;;;;;;;;;;;;;;;;;5027760;28;4462;-64
2022/10/15 03:06:06;;;;;;;;;;;;;;;;;;5029211;28;3158;-64
2022/10/15 03:08:31;;;;;;;;;;;;;;;;;;5030194;28;5021;-63
2022/10/15 03:10:58;;;;;;;;;;;;;;;;;;5030990;28;5106;-64
2022/10/15 03:13:23;;;;;;;;;;;;;;;;;;5011486;28;5113;-63
2022/10/15 03:15:49;;;;;;;;;;;;;;;;;;5027051;28;4914;-64
2022/10/15 03:18:14;;;;;;;;;;;;;;;;;;5031995;28;950;-64
2022/10/15 03:20:40;;;;;;;;;;;;;;;;;;5022507;28;5597;-64
2022/10/15 03:23:05;;;;;;;;;;;;;;;;;;5028781;28;4985;-64
2022/10/15 03:25:30;;;;;;;;;;;;;;;;;;5031037;28;4716;-64
2022/10/15 03:27:55;;;;;;;;;;;;;;;;;;5030959;28;5075;-64
2022/10/15 03:30:21;;;;;;;;;;;;;;;;;;5013875;28;5078;-64
2022/10/15 03:32:46;;;;;;;;;;;;;;;;;;5031057;28;999;-64
2022/10/15 03:35:12;;;;;;;;;;;;;;;;;;5020427;28;5039;-64
2022/10/15 03:37:37;;;;;;;;;;;;;;;;;;5021485;28;5077;-64
2022/10/15 03:40:02;;;;;;;;;;;;;;;;;;5030065;28;4974;-63
2022/10/15 03:42:27;;;;;;;;;;;;;;;;;;5017551;28;5145;-62
2022/10/15 03:44:53;;;;;;;;;;;;;;;;;;5034353;28;3202;-64
2022/10/15 03:47:18;;;;;;;;;;;;;;;;;;5050554;28;4455;-63
2022/10/15 03:49:43;;;;;;;;;;;;;;;;;;5038231;28;5167;-64
2022/10/15 03:52:09;;;;;;;;;;;;;;;;;;5040077;28;4835;-63
2022/10/15 03:54:34;;;;;;;;;;;;;;;;;;5048468;28;4787;-63
2022/10/15 03:56:59;;;;;;;;;;;;;;;;;;5050926;28;1117;-63
2022/10/15 03:59:24;;;;;;;;;;;;;;;;;;5043576;28;5304;-63
2022/10/15 04:01:50;;;;;;;;;;;;;;;;;;5029813;28;4585;-63
2022/10/15 04:04:15;;;;;;;;;;;;;;;;;;5032105;28;4668;-63
2022/10/15 04:06:40;;;;;;;;;;;;;;;;;;5048542;28;4682;-63
2022/10/15 04:09:05;;;;;;;;;;;;;;;;;;5048290;28;3194;-64
2022/10/15 04:11:31;;;;;;;;;;;;;;;;;;5035692;28;5267;-63
2022/10/15 04:13:56;;;;;;;;;;;;;;;;;;5040629;28;5014;-63
2022/10/15 04:16:21;;;;;;;;;;;;;;;;;;5034305;28;5033;-63
2022/10/15 04:18:46;;;;;;;;;;;;;;;;;;5030560;28;5351;-63
2022/10/15 04:21:12;;;;;;;;;;;;;;;;;;5032440;28;2157;-63
2022/10/15 04:23:37;;;;;;;;;;;;;;;;;;5049558;28;5040;-63
2022/10/15 04:26:02;;;;;;;;;;;;;;;;;;5048098;28;5016;-63
2022/10/15 04:28:27;;;;;;;;;;;;;;;;;;5033278;28;4621;-63
2022/10/15 04:30:57;;;;;;;;;;;;;;;;;;5030825;28;4811;-63
2022/10/15 04:33:22;;;;;;;;;;;;;;;;;;5011920;28;5187;-63
2022/10/15 04:35:56;;;;;;;;;;;;;;;;;;5033300;28;2767;-63
2022/10/15 04:38:21;;;;;;;;;;;;;;;;;;5028852;28;5113;-63
2022/10/15 04:40:46;;;;;;;;;;;;;;;;;;5030048;28;4457;-63
2022/10/15 04:43:11;;;;;;;;;;;;;;;;;;5032334;28;5207;-63
2022/10/15 04:45:36;;;;;;;;;;;;;;;;;;5025304;28;4970;-63
2022/10/15 04:48:02;;;;;;;;;;;;;;;;;;5014240;28;2325;-63
2022/10/15 04:50:27;;;;;;;;;;;;;;;;;;5011426;28;5266;-63
2022/10/15 04:52:52;;;;;;;;;;;;;;;;;;5021002;28;5926;-63
2022/10/15 04:55:17;;;;;;;;;;;;;;;;;;5024627;28;5166;-63
2022/10/15 04:57:43;;;;;;;;;;;;;;;;;;5028581;28;4686;-64
2022/10/15 05:00:08;;;;;;;;;;;;;;;;;;5027347;28;3174;-64
2022/10/15 05:02:33;;;;;;;;;;;;;;;;;;5027517;28;4546;-64
2022/10/15 05:04:59;;;;;;;;;;;;;;;;;;5024090;28;5057;-64
2022/10/15 05:07:30;;;;;;;;;;;;;;;;;;5025875;28;5084;-62
2022/10/15 05:10:02;;;;;;;;;;;;;;;;;;5027239;28;5080;-64
2022/10/15 05:12:27;;;;;;;;;;;;;;;;;;5029040;28;5130;-63
2022/10/15 05:14:53;;;;;;;;;;;;;;;;;;5027580;28;3207;-64
2022/10/15 05:17:18;;;;;;;;;;;;;;;;;;5024750;28;4398;-64
2022/10/15 05:19:43;;;;;;;;;;;;;;;;;;5018611;28;4997;-64
2022/10/15 05:22:08;;;;;;;;;;;;;;;;;;5028491;28;5135;-64
2022/10/15 05:24:34;;;;;;;;;;;;;;;;;;5020296;28;5051;-64
2022/10/15 05:26:59;;;;;;;;;;;;;;;;;;5009218;28;4776;-63
2022/10/15 05:29:24;;;;;;;;;;;;;;;;;;5010721;28;5011;-64
2022/10/15 05:31:50;;;;;;;;;;;;;;;;;;5024455;28;5573;-63
2022/10/15 05:34:15;;;;;;;;;;;;;;;;;;5027177;28;4962;-63
2022/10/15 05:36:41;;;;;;;;;;;;;;;;;;5028114;28;5001;-63
2022/10/15 05:39:09;;;;;;;;;;;;;;;;;;5017002;28;3276;-63
2022/10/15 05:41:34;;;;;;;;;;;;;;;;;;5024093;28;4929;-62
2022/10/15 05:43:59;;;;;;;;;;;;;;;;;;5028521;28;5035;-63
2022/10/15 05:46:25;;;;;;;;;;;;;;;;;;5047866;28;5101;-63
2022/10/15 05:48:50;;;;;;;;;;;;;;;;;;5038675;28;5644;-63
2022/10/15 05:51:16;;;;;;;;;;;;;;;;;;5040436;28;3203;-63
2022/10/15 05:53:42;;;;;;;;;;;;;;;;;;5042879;28;4878;-63
2022/10/15 05:56:08;;;;;;;;;;;;;;;;;;5039619;28;5090;-63
2022/10/15 05:58:33;;;;;;;;;;;;;;;;;;5028646;28;4553;-64
2022/10/15 06:00:59;;;;;;;;;;;;;;;;;;5046190;28;5149;-64
2022/10/15 06:03:24;;;;;;;;;;;;;;;;;;5031818;28;5453;-64
2022/10/15 06:05:49;;;;;;;;;;;;;;;;;;5044521;28;3267;-64
2022/10/15 06:08:15;;;;;;;;;;;;;;;;;;5032726;28;5140;-63
2022/10/15 06:10:40;;;;;;;;;;;;;;;;;;5039545;28;5021;-63
2022/10/15 06:13:05;;;;;;;;;;;;;;;;;;5033651;28;5041;-63
2022/10/15 06:15:31;;;;;;;;;;;;;;;;;;5038731;28;5068;-64
2022/10/15 06:17:56;;;;;;;;;;;;;;;;;;5047481;28;3229;-64
2022/10/15 06:20:21;;;;;;;;;;;;;;;;;;5038664;28;4688;-64
2022/10/15 06:22:46;;;;;;;;;;;;;;;;;;5048121;28;5321;-63
2022/10/15 06:25:12;;;;;;;;;;;;;;;;;;5031661;28;5021;-62
2022/10/15 06:27:37;;;;;;;;;;;;;;;;;;5036308;28;5076;-63
2022/10/15 06:30:02;;;;;;;;;;;;;;;;;;5029879;28;3411;-62
2022/10/15 06:32:28;;;;;;;;;;;;;;;;;;5027733;28;4928;-62
2022/10/15 06:34:53;;;;;;;;;;;;;;;;;;5028857;28;5108;-63
2022/10/15 06:37:18;;;;;;;;;;;;;;;;;;5017901;28;5101;-62
2022/10/15 06:39:45;;;;;;;;;;;;;;;;;;5042624;28;4982;-63
2022/10/15 06:42:11;;;;;;;;;;;;;;;;;;5039096;28;3185;-63
2022/10/15 06:44:36;;;;;;;;;;;;;;;;;;5044360;28;5059;-64
2022/10/15 06:47:01;;;;;;;;;;;;;;;;;;5035657;28;5132;-65
2022/10/15 06:49:26;;;;;;;;;;;;;;;;;;5046883;28;5042;-64
2022/10/15 06:51:52;;;;;;;;;;;;;;;;;;5049688;28;5078;-64
2022/10/15 06:54:17;;;;;;;;;;;;;;;;;;5046535;28;4676;-63
2022/10/15 06:56:42;;;;;;;;;;;;;;;;;;5046039;28;3368;-62
2022/10/15 06:59:07;;;;;;;;;;;;;;;;;;5050578;28;4607;-65
2022/10/15 07:01:33;;;;;;;;;;;;;;;;;;5051425;28;5072;-63
2022/10/15 07:03:58;;;;;;;;;;;;;;;;;;5050785;28;4624;-63
2022/10/15 07:06:24;;;;;;;;;;;;;;;;;;5033267;28;5102;-62
2022/10/15 07:08:49;;;;;;;;;;;;;;;;;;5051163;28;982;-62
2022/10/15 07:11:15;;;;;;;;;;;;;;;;;;5047213;28;5129;-64
2022/10/15 07:13:41;;;;;;;;;;;;;;;;;;5050526;28;5268;-59
2022/10/15 07:16:07;;;;;;;;;;;;;;;;;;5046713;28;4808;-59
2022/10/15 07:18:32;;;;;;;;;;;;;;;;;;5033040;28;5095;-59
2022/10/15 07:20:58;;;;;;;;;;;;;;;;;;5047694;28;2986;-59
2022/10/15 07:23:23;;;;;;;;;;;;;;;;;;5050942;28;5024;-58
2022/10/15 07:25:48;;;;;;;;;;;;;;;;;;5030427;28;4453;-58
2022/10/15 07:28:14;;;;;;;;;;;;;;;;;;5040774;28;4737;-58
2022/10/15 07:30:39;;;;;;;;;;;;;;;;;;5044194;28;5033;-59
2022/10/15 07:33:04;;;;;;;;;;;;;;;;;;5040076;28;3247;-60
2022/10/15 07:35:29;;;;;;;;;;;;;;;;;;5029186;28;5017;-68
2022/10/15 07:37:55;;;;;;;;;;;;;;;;;;5040727;28;4508;-66
2022/10/15 07:40:20;;;;;;;;;;;;;;;;;;5044100;28;4714;-62
2022/10/15 07:42:53;;;;;;;;;;;;;;;;;;5050628;28;5110;-63
2022/10/15 07:45:18;;;;;;;;;;;;;;;;;;5026694;28;5004;-64
2022/10/15 07:47:43;;;;;;;;;;;;;;;;;;5022107;28;2871;-67
2022/10/15 07:50:09;;;;;;;;;;;;;;;;;;5016318;28;5094;-73
2022/10/15 07:52:34;;;;;;;;;;;;;;;;;;5024104;28;4650;-65
2022/10/15 07:54:59;;;;;;;;;;;;;;;;;;5022889;28;5085;-63
2022/10/15 07:57:24;;;;;;;;;;;;;;;;;;5027502;28;5168;-63
2022/10/15 07:59:50;;;;;;;;;;;;;;;;;;5028883;28;1353;-62
2022/10/15 08:02:15;;;;;;;;;;;;;;;;;;5019350;28;5008;-68
2022/10/15 08:04:41;;;;;;;;;;;;;;;;;;5020013;28;4972;-65
2022/10/15 08:07:06;;;;;;;;;;;;;;;;;;5024369;28;5173;-63
2022/10/15 08:09:31;;;;;;;;;;;;;;;;;;5026317;28;5109;-64
2022/10/15 08:11:56;;;;;;;;;;;;;;;;;;5024797;28;1179;-63
2022/10/15 08:14:22;;;;;;;;;;;;;;;;;;5012146;28;4971;-62
2022/10/15 08:16:47;;;;;;;;;;;;;;;;;;5024323;28;5244;-64
2022/10/15 08:19:16;;;;;;;;;;;;;;;;;;5023151;28;4538;-65
2022/10/15 08:21:41;;;;;;;;;;;;;;;;;;5024280;28;4965;-66
2022/10/15 08:24:07;;;;;;;;;;;;;;;;;;5029697;28;1417;-65
2022/10/15 08:26:33;;;;;;;;;;;;;;;;;;5028921;28;5118;-66
2022/10/15 08:28:58;;;;;;;;;;;;;;;;;;5026419;28;4955;-64
2022/10/15 08:31:23;;;;;;;;;;;;;;;;;;5026485;28;4796;-66
2022/10/15 08:33:48;;;;;;;;;;;;;;;;;;5028283;28;4663;-66
2022/10/15 08:36:14;;;;;;;;;;;;;;;;;;5028114;28;1777;-66
2022/10/15 08:38:39;;;;;;;;;;;;;;;;;;5027864;28;4891;-66
2022/10/15 08:41:05;;;;;;;;;;;;;;;;;;5033588;28;4819;-63
2022/10/15 08:43:34;;;;;;;;;;;;;;;;;;5026604;28;4914;-66
2022/10/15 08:46:00;;;;;;;;;;;;;;;;;;5019303;28;5372;-63
2022/10/15 08:48:29;;;;;;;;;;;;;;;;;;5026509;28;4839;-65
2022/10/15 08:50:58;;;;;;;;;;;;;;;;;;5026975;28;3186;-63
2022/10/15 08:53:24;;;;;;;;;;;;;;;;;;5014045;28;4453;-65
2022/10/15 08:55:49;;;;;;;;;;;;;;;;;;5018560;28;4514;-61
2022/10/15 08:58:15;;;;;;;;;;;;;;;;;;5022605;28;5077;-66
2022/10/15 09:00:46;;;;;;;;;;;;;;;;;;5026441;28;4659;-62
2022/10/15 09:03:30;;;;;;;;;;;;;;;;;;5026351;28;3158;-62
2022/10/15 09:06:04;;;;;;;;;;;;;;;;;;5020345;28;5110;-64
2022/10/15 09:08:29;;;;;;;;;;;;;;;;;;5028189;28;4841;-65
2022/10/15 09:11:02;;;;;;;;;;;;;;;;;;5027711;28;5055;-63
2022/10/15 09:13:32;;;;;;;;;;;;;;;;;;5027261;28;5274;-63
2022/10/15 09:16:18;;;;;;;;;;;;;;;;;;5021871;28;5098;-62
2022/10/15 09:18:44;;;;;;;;;;;;;;;;;;5014768;28;4901;-62
2022/10/15 09:21:10;;;;;;;;;;;;;;;;;;5020128;28;3198;-63
2022/10/15 09:23:35;;;;;;;;;;;;;;;;;;5013216;28;5299;-63
2022/10/15 09:26:19;;;;;;;;;;;;;;;;;;5017461;28;4957;-62
2022/10/15 09:28:45;;;;;;;;;;;;;;;;;;5024729;28;5104;-63
2022/10/15 09:31:10;;;;;;;;;;;;;;;;;;5021517;28;4665;-61
2022/10/15 09:33:39;;;;;;;;;;;;;;;;;;5010341;28;5168;-61
2022/10/15 09:36:08;;;;;;;;;;;;;;;;;;5020910;28;3294;-63
2022/10/15 09:38:45;;;;;;;;;;;;;;;;;;5017507;28;4476;-62
2022/10/15 09:41:28;;;;;;;;;;;;;;;;;;5021243;28;5070;-65
2022/10/15 09:43:54;;;;;;;;;;;;;;;;;;5020510;28;5132;-66
2022/10/15 09:46:20;;;;;;;;;;;;;;;;;;5019875;28;5080;-63
2022/10/15 09:48:51;;;;;;;;;;;;;;;;;;5009865;28;5106;-65
2022/10/15 09:51:25;;;;;;;;;;;;;;;;;;5019775;28;3379;-66
2022/10/15 09:53:53;;;;;;;;;;;;;;;;;;5019616;28;4429;-66
2022/10/15 09:56:18;;;;;;;;;;;;;;;;;;5025417;28;4998;-65
2022/10/15 09:58:54;;;;;;;;;;;;;;;;;;5027060;28;4986;-66
2022/10/15 10:01:23;;;;;;;;;;;;;;;;;;5026726;28;5076;-65
2022/10/15 10:03:52;;;;;;;;;;;;;;;;;;5024328;28;5035;-65
2022/10/15 10:06:18;;;;;;;;;;;;;;;;;;5009465;28;5135;-65
2022/10/15 10:08:51;;;;;;;;;;;;;;;;;;4991670;28;1882;-66
2022/10/15 10:11:16;;;;;;;;;;;;;;;;;;5008779;28;4921;-65
2022/10/15 10:13:47;;;;;;;;;;;;;;;;;;5027331;28;5242;-65
2022/10/15 10:16:13;;;;;;;;;;;;;;;;;;5015699;28;4503;-66
2022/10/15 10:18:39;;;;;;;;;;;;;;;;;;5028536;28;5348;-65
2022/10/15 10:21:05;;;;;;;;;;;;;;;;;;5027891;28;3181;-65
2022/10/15 10:23:38;;;;;;;;;;;;;;;;;;5031435;28;5043;-66
2022/10/15 10:26:04;;;;;;;;;;;;;;;;;;5022459;28;5026;-67
2022/10/15 10:28:33;;;;;;;;;;;;;;;;;;5036712;28;4991;-66
2022/10/15 10:31:02;;;;;;;;;;;;;;;;;;5038736;28;5035;-67
2022/10/15 10:33:33;;;;;;;;;;;;;;;;;;5029793;28;4908;-67
2022/10/15 10:35:59;;;;;;;;;;;;;;;;;;5032543;28;1405;-67
2022/10/15 10:38:26;;;;;;;;;;;;;;;;;;5030122;28;4509;-67
2022/10/15 10:41:11;;;;;;;;;;;;;;;;;;5018817;28;4985;-67
2022/10/15 10:43:37;;;;;;;;;;;;;;;;;;5012282;28;4473;-67
2022/10/15 10:46:15;;;;;;;;;;;;;;;;;;5026307;28;5043;-67
2022/10/15 10:48:41;;;;;;;;;;;;;;;;;;5032240;28;5154;-66
2022/10/15 10:51:08;;;;;;;;;;;;;;;;;;5032005;28;3023;-67
2022/10/15 10:53:34;;;;;;;;;;;;;;;;;;5048684;28;4992;-67
2022/10/15 10:55:59;;;;;;;;;;;;;;;;;;5052348;28;4816;-67
2022/10/15 10:58:26;;;;;;;;;;;;;;;;;;5051050;28;5052;-67
2022/10/15 11:00:51;;;;;;;;;;;;;;;;;;5050481;28;4976;-67
2022/10/15 11:03:21;;;;;;;;;;;;;;;;;;5052341;28;1989;-67
2022/10/15 11:05:46;;;;;;;;;;;;;;;;;;5034186;28;4911;-66
2022/10/15 11:08:20;;;;;;;;;;;;;;;;;;5033711;28;4845;-66
2022/10/15 11:10:51;;;;;;;;;;;;;;;;;;5034001;28;4986;-68
2022/10/15 11:13:32;;;;;;;;;;;;;;;;;;5050794;28;4988;-67
2022/10/15 11:16:07;;;;;;;;;;;;;;;;;;5015641;28;4802;-67
2022/10/15 11:18:51;;;;;;;;;;;;;;;;;;5031045;28;4980;-68
2022/10/15 11:21:19;;;;;;;;;;;;;;;;;;5031993;28;1983;-68
2022/10/15 11:23:47;;;;;;;;;;;;;;;;;;5037954;28;5058;-67
2022/10/15 11:26:12;;;;;;;;;;;;;;;;;;5032309;28;5445;-67
2022/10/15 11:28:43;;;;;;;;;;;;;;;;;;5050943;28;5530;-67
2022/10/15 11:31:18;;;;;;;;;;;;;;;;;;5068465;28;4552;-67
2022/10/15 11:33:47;;;;;;;;;;;;;;;;;;5065276;28;5071;-67
2022/10/15 11:36:22;;;;;;;;;;;;;;;;;;5033705;28;2131;-67
2022/10/15 11:38:53;;;;;;;;;;;;;;;;;;5049839;28;4620;-67
2022/10/15 11:41:32;;;;;;;;;;;;;;;;;;5032030;28;5136;-67
2022/10/15 11:44:16;;;;;;;;;;;;;;;;;;5050136;28;5264;-67
2022/10/15 11:46:44;;;;;;;;;;;;;;;;;;5030055;28;4879;-67
2022/10/15 11:49:32;;;;;;;;;;;;;;;;;;5032545;28;4439;-67
2022/10/15 11:52:02;;;;;;;;;;;;;;;;;;5037914;28;5113;-66
2022/10/15 11:54:30;;;;;;;;;;;;;;;;;;5045328;28;4883;-67
2022/10/15 11:56:55;;;;;;;;;;;;;;;;;;5044607;28;1105;-67
2022/10/15 11:59:29;;;;;;;;;;;;;;;;;;5038180;28;5128;-66
2022/10/15 12:02:15;;;;;;;;;;;;;;;;;;5041032;28;5224;-67
2022/10/15 12:04:43;;;;;;;;;;;;;;;;;;5036779;28;4928;-67
2022/10/15 12:07:11;;;;;;;;;;;;;;;;;;5051295;28;5098;-67
2022/10/15 12:09:38;;;;;;;;;;;;;;;;;;5032464;28;4372;-67
2022/10/15 12:12:03;;;;;;;;;;;;;;;;;;5032916;28;1036;-67
2022/10/15 12:14:28;;;;;;;;;;;;;;;;;;5047906;28;4735;-67
2022/10/15 12:17:09;;;;;;;;;;;;;;;;;;5048361;28;5067;-66
2022/10/15 12:19:34;;;;;;;;;;;;;;;;;;5036870;28;5254;-62
2022/10/15 12:22:08;;;;;;;;;;;;;;;;;;5034298;28;5487;-65
2022/10/15 12:24:36;;;;;;;;;;;;;;;;;;5042080;28;5168;-66
2022/10/15 12:27:20;;;;;;;;;;;;;;;;;;5039575;28;4434;-65
2022/10/15 12:29:49;;;;;;;;;;;;;;;;;;5040985;28;5019;-65
2022/10/15 12:32:20;;;;;;;;;;;;;;;;;;5048640;28;4830;-66
2022/10/15 12:34:45;;;;;;;;;;;;;;;;;;5019668;28;4844;-66
2022/10/15 12:37:17;;;;;;;;;;;;;;;;;;5041560;28;5126;-65
2022/10/15 12:39:42;;;;;;;;;;;;;;;;;;5016306;28;4919;-67
2022/10/15 12:42:26;;;;;;;;;;;;;;;;;;5044862;28;3050;-67
2022/10/15 12:44:51;;;;;;;;;;;;;;;;;;5040732;28;4982;-66
2022/10/15 12:47:40;;;;;;;;;;;;;;;;;;5047594;28;4989;-67
2022/10/15 12:50:05;;;;;;;;;;;;;;;;;;5023740;28;4915;-65
2022/10/15 12:52:49;;;;;;;;;;;;;;;;;;5040660;28;4611;-64
2022/10/15 12:55:24;;;;;;;;;;;;;;;;;;5017555;28;4629;-65
2022/10/15 12:57:50;;;;;;;;;;;;;;;;;;5037652;28;5296;-64
2022/10/15 13:00:25;;;;;;;;;;;;;;;;;;5045888;28;3027;-65
2022/10/15 13:02:50;;;;;;;;;;;;;;;;;;5035081;28;5087;-65
2022/10/15 13:05:23;;;;;;;;;;;;;;;;;;5027714;28;5022;-65
2022/10/15 13:07:55;;;;;;;;;;;;;;;;;;5046819;28;5140;-64
2022/10/15 13:10:29;;;;;;;;;;;;;;;;;;5020569;28;5185;-65
2022/10/15 13:12:55;;;;;;;;;;;;;;;;;;5027875;28;4844;-65
2022/10/15 13:15:21;;;;;;;;;;;;;;;;;;5035292;28;5025;-64
2022/10/15 13:17:46;;;;;;;;;;;;;;;;;;5026982;28;3064;-66
2022/10/15 13:20:24;;;;;;;;;;;;;;;;;;5039638;28;5269;-67
2022/10/15 13:22:50;;;;;;;;;;;;;;;;;;5023899;28;5253;-67
2022/10/15 13:25:15;;;;;;;;;;;;;;;;;;5045959;28;4961;-67
2022/10/15 13:27:40;;;;;;;;;;;;;;;;;;5042230;28;4662;-65
2022/10/15 13:30:15;;;;;;;;;;;;;;;;;;5042310;28;3055;-66
2022/10/15 13:32:58;;;;;;;;;;;;;;;;;;5033310;28;4904;-67
2022/10/15 13:35:31;;;;;;;;;;;;;;;;;;5037124;28;5053;-67
2022/10/15 13:37:56;;;;;;;;;;;;;;;;;;5030654;28;5098;-66
2022/10/15 13:40:22;;;;;;;;;;;;;;;;;;5036260;28;5123;-65
2022/10/15 13:43:20;;;;;;;;;;;;;;;;;;5042605;28;4999;-65
2022/10/15 13:45:46;;;;;;;;;;;;;;;;;;4997369;28;4919;-66
2022/10/15 13:48:12;;;;;;;;;;;;;;;;;;5035892;28;3131;-64
2022/10/15 13:50:38;;;;;;;;;;;;;;;;;;5021329;28;5046;-67
2022/10/15 13:53:23;;;;;;;;;;;;;;;;;;5005450;28;5076;-70
2022/10/15 13:55:50;;;;;;;;;;;;;;;;;;5023930;28;5038;-69
2022/10/15 13:58:18;;;;;;;;;;;;;;;;;;5022826;28;5066;-66
2022/10/15 14:00:47;;;;;;;;;;;;;;;;;;5034718;28;4524;-66
2022/10/15 14:03:17;;;;;;;;;;;;;;;;;;5036984;28;3082;-65
2022/10/15 14:05:43;;;;;;;;;;;;;;;;;;5031503;28;4966;-69
2022/10/15 14:08:22;;;;;;;;;;;;;;;;;;5017381;28;5074;-64
2022/10/15 14:10:47;;;;;;;;;;;;;;;;;;5016035;28;4931;-69
2022/10/15 14:13:12;;;;;;;;;;;;;;;;;;5032561;28;5282;-68
2022/10/15 14:15:41;;;;;;;;;;;;;;;;;;5040175;28;5182;-66
2022/10/15 14:18:06;;;;;;;;;;;;;;;;;;5037637;28;3128;-64
2022/10/15 14:20:31;;;;;;;;;;;;;;;;;;5020761;28;4633;-64
2022/10/15 14:22:57;;;;;;;;;;;;;;;;;;5024709;28;5139;-66
2022/10/15 14:25:23;;;;;;;;;;;;;;;;;;5044181;28;5058;-64
2022/10/15 14:27:49;;;;;;;;;;;;;;;;;;5025579;28;4915;-70
2022/10/15 14:30:14;;;;;;;;;;;;;;;;;;5007814;28;3066;-63
2022/10/15 14:32:42;;;;;;;;;;;;;;;;;;5026754;28;4390;-65
2022/10/15 14:35:21;;;;;;;;;;;;;;;;;;5039150;28;4414;-66
2022/10/15 14:37:46;;;;;;;;;;;;;;;;;;5019297;28;5207;-65
2022/10/15 14:40:12;;;;;;;;;;;;;;;;;;5039984;28;5074;-65
2022/10/15 14:42:42;;;;;;;;;;;;;;;;;;5041595;28;5106;-63
2022/10/15 14:45:26;;;;;;;;;;;;;;;;;;5036605;28;3332;-64
2022/10/15 14:47:59;;;;;;;;;;;;;;;;;;5032901;28;4539;-65
2022/10/15 14:50:29;;;;;;;;;;;;;;;;;;5033669;28;4996;-61
2022/10/15 14:52:54;;;;;;;;;;;;;;;;;;5022958;28;5384;-68
2022/10/15 14:55:23;;;;;;;;;;;;;;;;;;5038572;28;5118;-61
2022/10/15 14:57:48;;;;;;;;;;;;;;;;;;5037295;28;4855;-62
2022/10/15 15:00:24;;;;;;;;;;;;;;;;;;5039911;28;3230;-63
2022/10/15 15:02:49;;;;;;;;;;;;;;;;;;5020505;28;5030;-64
2022/10/15 15:05:24;;;;;;;;;;;;;;;;;;5043741;28;4957;-67
2022/10/15 15:07:50;;;;;;;;;;;;;;;;;;5037237;28;4506;-60
2022/10/15 15:10:15;;;;;;;;;;;;;;;;;;5026000;28;5124;-58
2022/10/15 15:12:41;;;;;;;;;;;;;;;;;;5037595;28;5056;-62
2022/10/15 15:15:14;;;;;;;;;;;;;;;;;;5006214;28;2998;-62
2022/10/15 15:17:39;;;;;;;;;;;;;;;;;;5042299;28;4416;-56
2022/10/15 15:20:05;;;;;;;;;;;;;;;;;;5038129;28;5088;-60
2022/10/15 15:22:30;;;;;;;;;;;;;;;;;;5038404;28;4639;-59
2022/10/15 15:24:56;;;;;;;;;;;;;;;;;;5021004;28;5927;-60
2022/10/15 15:27:24;;;;;;;;;;;;;;;;;;5044579;28;5372;-62
2022/10/15 15:29:49;;;;;;;;;;;;;;;;;;5041942;28;3091;-60
2022/10/15 15:32:14;;;;;;;;;;;;;;;;;;5040812;28;5198;-62
2022/10/15 15:34:40;;;;;;;;;;;;;;;;;;5046218;28;4523;-61
2022/10/15 15:37:18;;;;;;;;;;;;;;;;;;5042283;28;5175;-60
2022/10/15 15:39:43;;;;;;;;;;;;;;;;;;5036110;28;4481;-60
2022/10/15 15:42:12;;;;;;;;;;;;;;;;;;5038104;28;3000;-61
2022/10/15 15:44:38;;;;;;;;;;;;;;;;;;5023752;28;4828;-62
2022/10/15 15:47:03;;;;;;;;;;;;;;;;;;5039229;28;4938;-63
2022/10/15 15:49:28;;;;;;;;;;;;;;;;;;5035517;28;5089;-61
2022/10/15 15:51:53;;;;;;;;;;;;;;;;;;5038906;28;5065;-58
2022/10/15 15:54:19;;;;;;;;;;;;;;;;;;5045853;28;4869;-62
2022/10/15 15:56:44;;;;;;;;;;;;;;;;;;5040371;28;3215;-64
2022/10/15 15:59:09;;;;;;;;;;;;;;;;;;5037697;28;4992;-62
2022/10/15 16:01:34;;;;;;;;;;;;;;;;;;5034376;28;5030;-62
2022/10/15 16:04:00;;;;;;;;;;;;;;;;;;5040720;28;4497;-61
2022/10/15 16:06:25;;;;;;;;;;;;;;;;;;5041203;28;5109;-60
2022/10/15 16:08:51;;;;;;;;;;;;;;;;;;5046336;28;2976;-60
2022/10/15 16:11:16;;;;;;;;;;;;;;;;;;5043501;28;4510;-60
2022/10/15 16:13:42;;;;;;;;;;;;;;;;;;5044906;28;5659;-60
2022/10/15 16:16:07;;;;;;;;;;;;;;;;;;5046523;28;5067;-60
2022/10/15 16:18:32;;;;;;;;;;;;;;;;;;5049704;28;5099;-61
2022/10/15 16:20:58;;;;;;;;;;;;;;;;;;5049164;28;929;-60
2022/10/15 16:23:23;;;;;;;;;;;;;;;;;;5013486;28;5354;-61
2022/10/15 16:25:48;;;;;;;;;;;;;;;;;;5029696;28;5004;-60
2022/10/15 16:28:13;;;;;;;;;;;;;;;;;;5044697;28;4945;-60
2022/10/15 16:30:39;;;;;;;;;;;;;;;;;;5049116;28;5070;-60
2022/10/15 16:33:05;;;;;;;;;;;;;;;;;;5050092;28;911;-60
2022/10/15 16:35:30;;;;;;;;;;;;;;;;;;5049469;28;4970;-60
2022/10/15 16:37:56;;;;;;;;;;;;;;;;;;5049461;28;5081;-60
2022/10/15 16:40:21;;;;;;;;;;;;;;;;;;5031709;28;5128;-61
2022/10/15 16:42:46;;;;;;;;;;;;;;;;;;5021144;28;5234;-60
2022/10/15 16:45:12;;;;;;;;;;;;;;;;;;5041124;28;1690;-61
2022/10/15 16:47:37;;;;;;;;;;;;;;;;;;5049072;28;5037;-60
2022/10/15 16:50:02;;;;;;;;;;;;;;;;;;5049251;28;5042;-61
2022/10/15 16:52:28;;;;;;;;;;;;;;;;;;5014974;28;5191;-60
2022/10/15 16:54:53;;;;;;;;;;;;;;;;;;5049802;28;5077;-60
2022/10/15 16:57:18;;;;;;;;;;;;;;;;;;5048417;28;4591;-60
2022/10/15 16:59:43;;;;;;;;;;;;;;;;;;5049406;28;2751;-61
2022/10/15 17:02:09;;;;;;;;;;;;;;;;;;5049153;28;5143;-61
2022/10/15 17:04:34;;;;;;;;;;;;;;;;;;5049264;28;4429;-61
2022/10/15 17:06:59;;;;;;;;;;;;;;;;;;5049372;28;4423;-61